.
WxDataArchive / Data Records for 2015-05-09
2015-05-08 May 2015 2015-05-10

Data Records for Saturday, 09 May 2015

Time	Temp	Chill	HIndex	Humid	Dewpt	 Wind 	HiWind	WindDir	Rain 	Barom
-----	----	-----	------	-----	-----	------	------	-------	-----	-----
00:00	67.1	67.1	67.1	82	61.4	0	0	---	0.00	29.958 
00:05	66.9	66.9	66.9	82	61.2	0	0	---	0.00	29.958 
00:10	66.8	66.8	66.8	82	61.1	0	0	---	0.00	29.958 
00:15	66.8	66.8	66.8	82	61.1	0	2	225	0.00	29.950 
00:20	66.6	66.6	66.6	82	60.9	0	1	225	0.00	29.950 
00:25	66.6	66.6	66.6	82	60.9	0	0	---	0.00	29.950 
00:30	66.4	66.4	66.4	82	60.7	0	0	---	0.00	29.948 
00:35	66.3	66.3	66.3	82	60.6	0	0	---	0.00	29.948 
00:40	66.1	66.1	66.1	82	60.4	0	0	---	0.00	29.948 
00:45	66.0	66.0	66.0	83	60.7	0	0	---	0.00	29.954 
00:50	65.8	65.8	65.8	83	60.5	0	0	---	0.00	29.954 
00:55	65.6	65.6	65.6	84	60.6	0	0	---	0.00	29.954 
01:00	65.5	65.5	65.5	84	60.5	0	0	---	0.00	29.955 
01:05	65.2	65.2	65.2	84	60.2	0	0	---	0.00	29.955 
01:10	65.2	65.2	65.2	85	60.6	0	0	---	0.00	29.955 
01:15	65.0	65.0	65.0	85	60.4	0	0	---	0.00	29.967 
01:20	65.0	65.0	65.0	85	60.4	0	0	---	0.00	29.967 
01:25	64.8	64.8	64.8	85	60.2	0	0	---	0.00	29.967 
01:30	64.7	64.7	64.7	85	60.1	0	0	---	0.00	29.965 
01:35	64.5	64.5	64.5	86	60.2	0	0	---	0.00	29.965 
01:40	64.3	64.3	64.3	86	60.0	0	0	---	0.00	29.965 
01:45	64.3	64.3	64.3	86	60.0	0	0	---	0.00	29.972 
01:50	64.0	64.0	64.0	87	60.0	0	0	---	0.00	29.972 
01:55	64.0	64.0	64.0	87	60.0	0	0	---	0.00	29.972 
02:00	63.9	63.9	63.9	87	59.9	0	0	---	0.00	29.969 
02:05	63.7	63.7	63.7	87	59.8	0	0	---	0.00	29.969 
02:10	63.5	63.5	63.5	88	59.9	0	0	---	0.00	29.969 
02:15	63.4	63.4	63.4	88	59.8	0	0	---	0.00	29.964 
02:20	63.2	63.2	63.2	88	59.6	0	0	---	0.00	29.964 
02:25	63.1	63.1	63.1	89	59.8	0	0	---	0.00	29.964 
02:30	63.1	63.1	63.1	89	59.8	0	0	---	0.00	29.961 
02:35	63.2	63.2	63.2	89	59.9	0	0	---	0.00	29.961 
02:40	63.2	63.2	63.2	90	60.2	0	0	---	0.00	29.961 
02:45	63.2	63.2	63.2	90	60.2	0	0	---	0.00	29.949 
02:50	63.4	63.4	63.4	90	60.4	0	0	---	0.00	29.949 
02:55	63.4	63.4	63.4	90	60.4	0	0	---	0.00	29.949 
03:00	63.4	63.4	63.4	90	60.4	0	0	---	0.00	29.951 
03:05	63.4	63.4	63.4	90	60.4	0	0	---	0.00	29.951 
03:10	63.4	63.4	63.4	90	60.4	0	0	---	0.00	29.951 
03:15	63.4	63.4	63.4	90	60.4	0	0	---	0.00	29.949 
03:20	63.4	63.4	63.4	90	60.4	0	0	---	0.00	29.949 
03:25	63.4	63.4	63.4	90	60.4	0	0	---	0.00	29.949 
03:30	63.4	63.4	63.4	91	60.7	0	0	---	0.00	29.950 
03:35	63.4	63.4	63.4	91	60.7	0	0	---	0.00	29.950 
03:40	63.4	63.4	63.4	91	60.7	0	0	---	0.00	29.950 
03:45	63.4	63.4	63.4	91	60.7	0	0	---	0.00	29.951 
03:50	63.4	63.4	63.4	91	60.7	0	0	---	0.00	29.951 
03:55	63.4	63.4	63.4	91	60.7	0	0	---	0.00	29.951 
04:00	63.4	63.4	63.4	91	60.7	0	0	---	0.00	29.948 
04:05	63.4	63.4	63.4	91	60.7	0	0	---	0.00	29.948 
04:10	63.5	63.5	63.5	91	60.8	0	0	---	0.00	29.948 
04:15	63.5	63.5	63.5	91	60.8	0	0	---	0.00	29.947 
04:20	63.5	63.5	63.5	91	60.8	0	0	---	0.00	29.947 
04:25	63.4	63.4	63.4	91	60.7	0	0	---	0.00	29.947 
04:30	63.5	63.5	63.5	91	60.8	0	0	---	0.00	29.950 
04:35	63.4	63.4	63.4	91	60.7	0	0	---	0.00	29.950 
04:40	63.4	63.4	63.4	91	60.7	0	0	---	0.00	29.950 
04:45	63.4	63.4	63.4	91	60.7	0	0	---	0.00	29.959 
04:50	63.4	63.4	63.4	91	60.7	0	0	---	0.00	29.959 
04:55	63.4	63.4	63.4	91	60.7	0	0	---	0.00	29.959 
05:00	63.4	63.4	63.4	91	60.7	0	0	---	0.00	29.961 
05:05	63.4	63.4	63.4	91	60.7	0	0	---	0.00	29.961 
05:10	63.4	63.4	63.4	91	60.7	0	0	---	0.00	29.961 
05:15	63.4	63.4	63.4	91	60.7	0	0	---	0.00	29.964 
05:20	63.4	63.4	63.4	91	60.7	0	0	---	0.00	29.964 
05:25	63.4	63.4	63.4	92	61.0	0	0	---	0.00	29.964 
05:30	63.5	63.5	63.5	92	61.1	0	0	---	0.00	29.968 
05:35	63.5	63.5	63.5	92	61.1	0	0	---	0.00	29.968 
05:40	63.5	63.5	63.5	92	61.1	0	0	---	0.00	29.968 
05:45	63.5	63.5	63.5	92	61.1	0	0	---	0.00	29.978 
05:50	63.5	63.5	63.5	92	61.1	0	0	---	0.00	29.978 
05:55	63.5	63.5	63.5	92	61.1	0	0	---	0.00	29.978 
06:00	63.5	63.5	63.5	92	61.1	0	0	---	0.00	29.976 
06:05	63.5	63.5	63.5	92	61.1	0	0	---	0.00	29.976 
06:10	63.5	63.5	63.5	92	61.1	0	0	---	0.00	29.976 
06:15	63.5	63.5	63.5	92	61.1	0	0	---	0.00	29.978 
06:20	63.7	63.7	63.7	92	61.3	0	0	---	0.00	29.978 
06:25	63.7	63.7	63.7	92	61.3	0	0	---	0.00	29.978 
06:30	63.7	63.7	63.7	92	61.3	0	1	225	0.00	29.977 
06:35	63.7	63.7	63.7	92	61.3	0	0	---	0.00	29.977 
06:40	63.5	63.5	63.5	92	61.1	0	2	225	0.00	29.977 
06:45	63.5	63.5	63.5	92	61.1	0	2	225	0.00	29.979 
06:50	63.7	63.7	63.7	92	61.3	0	0	---	0.00	29.979 
06:55	63.7	63.7	63.7	92	61.3	0	0	---	0.00	29.979 
07:00	63.9	63.9	63.9	92	61.5	0	0	---	0.00	29.980 
07:05	64.0	64.0	64.0	92	61.6	0	0	---	0.00	29.980 
07:10	64.0	64.0	64.0	92	61.6	0	0	---	0.00	29.980 
07:15	64.2	64.2	64.2	92	61.8	0	0	---	0.00	29.988 
07:20	64.3	64.3	64.3	92	61.9	0	0	---	0.00	29.988 
07:25	64.5	64.5	64.5	92	62.1	0	0	---	0.00	29.988 
07:30	64.8	64.8	64.8	92	62.4	0	1	225	0.00	29.988 
07:35	65.0	65.0	65.0	92	62.6	0	1	225	0.00	29.988 
07:40	65.3	65.3	65.3	91	62.6	0	1	225	0.00	29.988 
07:45	65.8	65.8	65.8	91	63.1	0	2	225	0.00	29.995 
07:50	66.1	66.1	66.1	90	63.1	0	1	225	0.00	29.995 
07:55	66.4	66.4	66.4	89	63.1	0	1	225	0.00	29.995 
08:00	66.6	66.6	66.6	89	63.3	0	2	225	0.00	29.990 
08:05	66.8	66.8	66.8	88	63.1	0	2	225	0.00	29.990 
08:10	66.9	66.9	66.9	88	63.2	0	2	225	0.00	29.990 
08:15	66.9	66.9	66.9	88	63.2	0	1	225	0.00	29.993 
08:20	67.1	67.1	67.1	88	63.4	0	2	225	0.00	29.993 
08:25	67.1	67.1	67.1	88	63.4	0	1	225	0.00	29.993 
08:30	67.3	67.3	67.3	88	63.6	0	1	225	0.00	29.998 
08:35	67.6	67.6	67.6	88	63.9	0	2	225	0.00	29.998 
08:40	67.8	67.8	67.8	88	64.1	0	5	90	0.00	29.998 
08:45	68.1	68.1	68.1	88	64.4	0	2	90	0.00	30.002 
08:50	68.3	68.3	68.3	87	64.3	0	1	90	0.00	30.002 
08:55	68.6	68.6	68.6	87	64.6	0	9	68	0.00	30.002 
09:00	68.9	68.9	68.9	86	64.5	0	2	68	0.00	30.002 
09:05	69.4	69.4	69.4	86	65.0	0	3	270	0.00	30.002 
09:10	69.6	69.6	69.6	84	64.5	1	4	270	0.00	30.002 
09:15	69.8	69.8	69.8	83	64.4	0	3	90	0.00	30.004 
09:20	69.8	69.8	69.8	82	64.0	0	3	90	0.00	30.004 
09:25	69.9	69.9	69.9	81	63.8	0	3	112	0.00	30.004 
09:30	70.1	70.1	70.1	81	64.0	1	4	112	0.00	30.005 
09:35	70.3	70.3	70.3	80	63.8	0	2	112	0.00	30.005 
09:40	70.3	70.3	70.3	80	63.8	1	3	248	0.00	30.005 
09:45	70.3	70.3	70.3	80	63.8	0	2	248	0.00	30.004 
09:50	70.4	70.4	70.4	80	63.9	0	1	248	0.00	30.004 
09:55	70.6	70.6	70.6	80	64.1	0	2	248	0.00	30.004 
10:00	70.8	70.8	70.8	80	64.3	0	3	248	0.00	30.005 
10:05	71.1	71.1	71.1	80	64.6	0	1	248	0.00	30.005 
10:10	71.3	71.3	71.3	79	64.4	0	2	248	0.00	30.005 
10:15	71.5	71.5	71.5	78	64.3	0	3	68	0.00	30.005 
10:20	72.0	72.0	72.0	78	64.8	1	3	292	0.00	30.005 
10:25	72.7	72.7	72.7	78	65.4	0	2	270	0.00	30.005 
10:30	73.0	73.0	73.0	76	65.0	0	2	270	0.00	30.003 
10:35	73.3	73.3	73.3	74	64.5	0	2	270	0.00	30.003 
10:40	73.2	73.2	73.2	73	64.0	1	3	270	0.00	30.003 
10:45	73.3	73.3	73.3	74	64.5	0	2	270	0.00	29.998 
10:50	73.7	73.7	73.7	73	64.5	0	2	270	0.00	29.998 
10:55	73.7	73.7	73.7	72	64.1	0	1	270	0.00	29.998 
11:00	73.5	73.5	73.5	73	64.3	0	1	270	0.00	29.996 
11:05	73.9	73.9	73.9	72	64.3	1	4	270	0.00	29.996 
11:10	73.9	73.9	73.9	73	64.7	1	3	270	0.00	29.996 
11:15	73.9	73.9	73.9	73	64.7	1	4	270	0.00	30.000 
11:20	73.7	73.7	73.7	74	64.9	1	4	270	0.00	30.000 
11:25	73.5	73.5	73.5	74	64.7	1	3	270	0.00	30.000 
11:30	73.3	73.3	73.3	73	64.1	1	3	270	0.00	30.005 
11:35	73.3	73.3	73.3	72	63.7	1	5	270	0.00	30.005 
11:40	73.5	73.5	73.5	72	63.9	1	4	270	0.00	30.005 
11:45	73.9	73.9	73.9	72	64.3	0	3	270	0.00	30.004 
11:50	74.4	74.4	74.4	70	64.0	1	3	270	0.00	30.004 
11:55	74.9	74.9	74.9	69	64.0	1	9	248	0.00	30.004 
12:00	75.1	75.1	76.9	68	63.8	1	5	248	0.00	30.003 
12:05	74.6	74.6	74.6	68	63.3	2	5	270	0.00	30.003 
12:10	74.6	74.6	74.6	69	63.7	1	4	270	0.00	30.003 
12:15	74.7	74.7	74.7	69	63.8	1	4	270	0.00	30.007 
12:20	74.7	74.7	74.7	69	63.8	0	3	270	0.00	30.007 
12:25	74.7	74.7	74.7	68	63.4	1	3	112	0.00	30.007 
12:30	74.7	74.7	74.7	70	64.2	1	3	112	0.00	30.010 
12:35	75.3	75.3	77.0	69	64.4	1	3	248	0.00	30.010 
12:40	75.4	75.4	77.3	67	63.7	1	3	248	0.00	30.010 
12:45	75.6	75.6	77.4	67	63.9	1	2	248	0.00	30.012 
12:50	75.4	75.4	77.3	67	63.7	1	6	292	0.00	30.012 
12:55	76.0	76.0	77.8	67	64.2	1	5	292	0.00	30.012 
13:00	76.5	76.5	78.3	66	64.3	1	3	292	0.00	30.006 
13:05	77.0	77.0	78.8	66	64.8	1	3	270	0.00	30.006 
13:10	77.6	77.6	79.4	64	64.4	1	3	270	0.00	30.006 
13:15	77.9	77.9	79.6	62	63.8	1	3	270	0.00	30.000 
13:20	77.9	77.9	79.6	62	63.8	1	3	248	0.00	30.000 
13:25	78.3	78.3	80.1	62	64.2	1	2	248	0.00	30.000 
13:30	78.3	78.3	80.0	60	63.2	1	2	202	0.00	29.997 
13:35	78.1	78.1	79.8	60	63.1	1	3	225	0.00	29.997 
13:40	77.7	77.7	79.4	61	63.2	0	3	270	0.00	29.997 
13:45	77.6	77.6	79.3	61	63.1	1	3	270	0.00	29.996 
13:50	77.7	77.7	79.4	62	63.6	2	4	270	0.00	29.996 
13:55	78.3	78.3	80.1	63	64.6	1	3	270	0.00	29.996 
14:00	78.3	78.3	79.9	59	62.8	2	5	270	0.00	29.991 
14:05	77.7	77.7	79.4	60	62.7	1	4	270	0.00	29.991 
14:10	77.9	77.9	79.6	62	63.8	1	4	270	0.00	29.991 
14:15	78.8	78.8	80.5	61	64.2	0	2	270	0.00	29.989 
14:20	79.2	79.2	80.7	57	62.6	1	3	270	0.00	29.989 
14:25	79.2	79.2	80.7	57	62.6	1	5	270	0.00	29.989 
14:30	79.6	79.6	81.1	57	63.0	1	3	292	0.00	29.986 
14:35	79.9	79.9	81.4	57	63.3	0	1	292	0.00	29.986 
14:40	79.9	79.9	81.2	55	62.3	1	5	292	0.00	29.986 
14:45	79.6	79.6	81.1	57	63.0	0	2	292	0.00	29.983 
14:50	79.2	79.2	80.6	56	62.1	1	3	292	0.00	29.983 
14:55	79.2	79.2	80.7	57	62.6	1	3	292	0.00	29.983 
15:00	79.6	79.6	81.0	56	62.5	1	3	315	0.00	29.981 
15:05	79.9	79.9	81.2	55	62.3	1	3	315	0.00	29.981 
15:10	79.9	79.9	81.1	54	61.7	1	2	315	0.00	29.981 
15:15	80.1	80.1	81.5	56	63.0	1	5	270	0.00	29.979 
15:20	80.7	80.7	82.2	56	63.5	1	3	338	0.00	29.979 
15:25	80.7	80.7	81.8	53	62.0	1	3	338	0.00	29.979 
15:30	80.7	80.7	81.9	54	62.5	2	6	292	0.00	29.968 
15:35	80.7	80.7	81.7	52	61.4	2	6	292	0.00	29.968 
15:40	80.9	80.9	82.0	53	62.1	1	3	270	0.00	29.968 
15:45	81.2	81.2	82.3	53	62.4	2	4	270	0.00	29.962 
15:50	81.6	81.6	82.5	51	61.7	1	5	270	0.00	29.962 
15:55	81.6	81.6	82.5	51	61.7	1	3	270	0.00	29.962 
16:00	82.0	82.0	82.8	50	61.5	1	2	270	0.00	29.965 
16:05	82.0	82.0	82.8	50	61.5	1	3	270	0.00	29.965 
16:10	82.2	82.2	83.1	51	62.2	0	3	270	0.00	29.965 
16:15	82.0	82.0	82.8	50	61.5	1	3	270	0.00	29.962 
16:20	82.0	82.0	82.8	50	61.5	1	5	248	0.00	29.962 
16:25	81.6	81.6	82.3	50	61.1	2	3	248	0.00	29.962 
16:30	80.9	80.9	81.9	52	61.6	1	3	248	0.00	29.966 
16:35	80.3	80.3	81.5	54	62.1	1	4	248	0.00	29.966 
16:40	80.1	80.1	81.3	54	61.9	0	1	248	0.00	29.966 
16:45	80.1	80.1	81.4	55	62.4	0	2	248	0.00	29.967 
16:50	80.5	80.5	81.7	54	62.3	1	3	248	0.00	29.967 
16:55	80.7	80.7	81.9	54	62.5	1	3	248	0.00	29.967 
17:00	80.5	80.5	81.6	53	61.8	2	5	248	0.00	29.966 
17:05	80.3	80.3	81.4	53	61.6	1	4	270	0.00	29.966 
17:10	80.5	80.5	81.7	54	62.3	0	3	270	0.00	29.966 
17:15	81.1	81.1	82.1	52	61.8	2	4	270	0.00	29.966 
17:20	80.9	80.9	81.9	52	61.6	1	3	270	0.00	29.966 
17:25	80.5	80.5	81.7	54	62.3	1	3	270	0.00	29.966 
17:30	81.1	81.1	82.1	52	61.8	1	4	270	0.00	29.965 
17:35	81.6	81.6	82.5	51	61.7	1	3	270	0.00	29.965 
17:40	81.6	81.6	82.6	52	62.2	1	5	270	0.00	29.965 
17:45	81.1	81.1	82.2	53	62.3	2	4	270	0.00	29.966 
17:50	80.9	80.9	82.0	53	62.1	1	5	270	0.00	29.966 
17:55	80.5	80.5	81.7	54	62.3	1	3	270	0.00	29.966 
18:00	80.5	80.5	81.7	54	62.3	1	2	270	0.00	29.965 
18:05	80.7	80.7	81.9	54	62.5	1	2	270	0.00	29.965 
18:10	80.9	80.9	82.1	54	62.7	2	3	270	0.00	29.965 
18:15	80.9	80.9	82.0	53	62.1	2	4	270	0.00	29.965 
18:20	80.5	80.5	81.7	54	62.3	1	3	270	0.00	29.965 
18:25	80.1	80.1	81.3	54	61.9	1	3	270	0.00	29.965 
18:30	79.6	79.6	81.0	56	62.5	1	3	270	0.00	29.972 
18:35	79.0	79.0	80.5	58	62.9	1	3	270	0.00	29.972 
18:40	78.6	78.6	80.2	59	63.1	1	2	270	0.00	29.972 
18:45	78.3	78.3	80.0	60	63.2	1	6	270	0.00	30.000 
18:50	76.3	76.3	78.2	62	62.3	2	7	270	0.00	30.000 
18:55	73.9	73.9	73.9	70	63.5	1	3	292	0.13	30.000 
19:00	70.6	70.6	70.6	77	63.0	1	3	248	0.26	30.026 
19:05	68.4	68.4	68.4	81	62.3	0	0	---	0.11	30.026 
19:10	67.6	67.6	67.6	85	62.9	0	1	248	0.03	30.026 
19:15	66.6	66.6	66.6	86	62.3	1	4	248	0.04	30.024 
19:20	65.6	65.6	65.6	88	61.9	1	3	248	0.02	30.024 
19:25	65.0	65.0	65.0	89	61.7	2	4	248	0.01	30.024 
19:30	64.7	64.7	64.7	90	61.7	0	2	248	0.02	30.024 
19:35	64.5	64.5	64.5	91	61.8	0	1	248	0.01	30.024 
19:40	64.5	64.5	64.5	91	61.8	0	0	---	0.02	30.024 
19:45	64.5	64.5	64.5	92	62.1	0	0	---	0.01	30.010 
19:50	64.5	64.5	64.5	92	62.1	0	0	---	0.01	30.010 
19:55	64.5	64.5	64.5	92	62.1	0	0	---	0.00	30.010 
20:00	64.7	64.7	64.7	92	62.3	0	0	---	0.01	30.008 
20:05	64.7	64.7	64.7	92	62.3	0	1	248	0.00	30.008 
20:10	64.8	64.8	64.8	93	62.7	0	0	---	0.00	30.008 
20:15	65.0	65.0	65.0	93	62.9	0	1	248	0.00	30.006 
20:20	65.0	65.0	65.0	93	62.9	0	0	---	0.00	30.006 
20:25	65.2	65.2	65.2	93	63.1	0	0	---	0.00	30.006 
20:30	65.2	65.2	65.2	93	63.1	0	0	---	0.00	30.004 
20:35	65.3	65.3	65.3	94	63.5	0	0	---	0.00	30.004 
20:40	65.3	65.3	65.3	94	63.5	0	0	---	0.00	30.004 
20:45	65.5	65.5	65.5	94	63.7	0	0	---	0.00	30.004 
20:50	65.3	65.3	65.3	94	63.5	0	0	---	0.00	30.004 
20:55	65.2	65.2	65.2	94	63.4	0	0	---	0.00	30.004 
21:00	65.2	65.2	65.2	94	63.4	0	0	---	0.00	29.994 
21:05	65.2	65.2	65.2	94	63.4	0	0	---	0.00	29.994 
21:10	65.2	65.2	65.2	94	63.4	0	0	---	0.00	29.994 
21:15	65.2	65.2	65.2	94	63.4	0	0	---	0.00	29.995 
21:20	65.0	65.0	65.0	94	63.2	0	0	---	0.00	29.995 
21:25	65.0	65.0	65.0	94	63.2	0	0	---	0.00	29.995 
21:30	65.0	65.0	65.0	95	63.5	0	0	---	0.00	30.008 
21:35	65.0	65.0	65.0	95	63.5	0	0	---	0.00	30.008 
21:40	65.0	65.0	65.0	95	63.5	0	0	---	0.00	30.008 
21:45	65.0	65.0	65.0	95	63.5	0	0	---	0.00	30.018 
21:50	65.0	65.0	65.0	95	63.5	0	0	---	0.00	30.018 
21:55	65.0	65.0	65.0	95	63.5	0	1	248	0.00	30.018 
22:00	65.0	65.0	65.0	95	63.5	0	0	---	0.00	30.025 
22:05	65.0	65.0	65.0	95	63.5	0	0	---	0.00	30.025 
22:10	65.0	65.0	65.0	95	63.5	0	1	248	0.00	30.025 
22:15	65.0	65.0	65.0	95	63.5	0	0	---	0.00	30.031 
22:20	65.0	65.0	65.0	95	63.5	0	0	---	0.00	30.031 
22:25	65.0	65.0	65.0	95	63.5	0	0	---	0.00	30.031 
22:30	65.0	65.0	65.0	95	63.5	0	0	---	0.00	30.028 
22:35	65.0	65.0	65.0	95	63.5	0	0	---	0.00	30.028 
22:40	65.0	65.0	65.0	95	63.5	0	0	---	0.00	30.028 
22:45	65.0	65.0	65.0	95	63.5	0	0	---	0.00	30.035 
22:50	65.0	65.0	65.0	95	63.5	0	0	---	0.00	30.035 
22:55	65.2	65.2	65.2	95	63.7	0	0	---	0.00	30.035 
23:00	65.2	65.2	65.2	95	63.7	0	0	---	0.00	30.034 
23:05	65.2	65.2	65.2	95	63.7	0	0	---	0.00	30.034 
23:10	65.2	65.2	65.2	95	63.7	0	0	---	0.00	30.034 
23:15	65.3	65.3	65.3	96	64.1	0	0	---	0.00	30.035 
23:20	65.3	65.3	65.3	96	64.1	0	0	---	0.00	30.035 
23:25	65.5	65.5	65.5	96	64.3	0	0	---	0.01	30.035 
23:30	65.6	65.6	65.6	96	64.4	0	0	---	0.00	30.032 
23:35	65.6	65.6	65.6	96	64.4	0	0	---	0.00	30.032 
23:40	65.8	65.8	65.8	96	64.6	0	0	---	0.00	30.032 
23:45	65.8	65.8	65.8	96	64.6	0	0	---	0.00	30.031 
23:50	65.8	65.8	65.8	96	64.6	0	0	---	0.01	30.031 
23:55	65.8	65.8	65.8	96	64.6	0	0	---	0.00	30.031 

CoCoRaHS
IN-AL-39
A2 Web Hosting
Creative Commons License
GoDaddy
search engine by freefind advanced

loaded 2018-11-17 06:42:29 • last modified 2010-11-18 10:43:29
Privacy PolicyDisclaimer
• wx.awcolley.com is powered by PmWiki v.2002016 •
• all content (unless otherwise noted) © 2018 A W Colley